createdAt,value
2019-04-29T00:00:59.481Z,9.17
2019-04-29T00:03:28.509Z,12.87
2019-04-29T00:05:57.511Z,9.90
2019-04-29T00:08:26.543Z,7.87
2019-04-29T00:10:55.557Z,6.60
2019-04-29T00:13:24.582Z,7.30
2019-04-29T00:16:30.824Z,9.27
2019-04-29T00:19:36.655Z,11.07
2019-04-29T00:22:06.340Z,10.37
2019-04-29T00:24:35.635Z,11.23
2019-04-29T00:27:04.810Z,12.27
2019-04-29T00:29:34.126Z,10.57
2019-04-29T00:32:03.545Z,12.13
2019-04-29T00:34:32.527Z,12.63
2019-04-29T00:37:19.005Z,13.83
2019-04-29T00:40:10.120Z,13.33
2019-04-29T00:42:57.753Z,12.50
2019-04-29T00:45:27.163Z,11.77
2019-04-29T00:47:56.219Z,12.80
2019-04-29T00:50:25.279Z,11.83
2019-04-29T00:52:54.663Z,14.33
2019-04-29T00:55:25.799Z,14.17
2019-04-29T00:57:55.216Z,14.17
2019-04-29T01:00:30.850Z,15.40
2019-04-29T01:02:59.893Z,14.17
2019-04-29T01:05:28.893Z,9.53
2019-04-29T01:07:57.892Z,9.20
2019-04-29T01:10:27.290Z,10.83
2019-04-29T01:12:56.289Z,11.47
2019-04-29T01:15:25.283Z,9.13
2019-04-29T01:17:54.297Z,8.27
2019-04-29T01:20:23.340Z,9.13
2019-04-29T01:22:53.127Z,8.83
2019-04-29T01:25:22.129Z,9.60
2019-04-29T01:28:07.121Z,9.23
2019-04-29T01:30:56.571Z,10.17
2019-04-29T01:33:25.592Z,12.17
2019-04-29T01:36:10.039Z,12.43
2019-04-29T01:38:39.035Z,12.90
2019-04-29T01:41:13.567Z,12.40
2019-04-29T01:44:02.212Z,13.00
2019-04-29T01:46:31.240Z,13.67
2019-04-29T01:49:00.254Z,14.07
2019-04-29T01:51:29.679Z,11.70
2019-04-29T01:53:58.749Z,12.07
2019-04-29T01:56:28.170Z,12.80
2019-04-29T01:58:57.612Z,13.33
2019-04-29T02:01:26.602Z,14.23
2019-04-29T02:03:55.605Z,13.93
2019-04-29T02:06:24.680Z,14.53
2019-04-29T02:08:55.346Z,14.00
2019-04-29T02:11:24.380Z,15.07
2019-04-29T02:13:53.776Z,14.43
2019-04-29T02:16:23.398Z,14.37
2019-04-29T02:18:52.427Z,14.00
2019-04-29T02:21:21.453Z,13.20
2019-04-29T02:23:56.860Z,12.57
2019-04-29T02:26:26.298Z,12.17
2019-04-29T02:28:55.425Z,14.70
2019-04-29T02:31:40.770Z,13.23
2019-04-29T02:34:10.224Z,13.30
2019-04-29T02:36:39.320Z,12.90
2019-04-29T02:39:23.873Z,13.07
2019-04-29T02:42:11.935Z,13.73
2019-04-29T02:44:40.936Z,9.20
2019-04-29T02:47:09.980Z,13.60
2019-04-29T02:49:39.649Z,9.47
2019-04-29T02:52:08.636Z,9.67
2019-04-29T02:54:38.043Z,8.87
2019-04-29T02:57:29.079Z,10.47
2019-04-29T03:00:04.800Z,10.90
2019-04-29T03:02:40.861Z,11.97
2019-04-29T03:05:18.819Z,10.43
2019-04-29T03:07:47.840Z,9.57
2019-04-29T03:10:16.927Z,8.37
2019-04-29T03:12:46.025Z,6.37
2019-04-29T03:15:27.315Z,4.87
2019-04-29T03:17:56.320Z,4.90
2019-04-29T03:20:30.508Z,4.57
2019-04-29T03:23:10.910Z,5.13
2019-04-29T03:25:40.285Z,5.50
2019-04-29T03:28:09.278Z,5.10
2019-04-29T03:30:38.587Z,4.90
2019-04-29T03:33:08.126Z,6.20
2019-04-29T03:35:37.184Z,5.50
2019-04-29T03:38:06.595Z,5.83
2019-04-29T03:40:35.624Z,5.47
2019-04-29T03:43:04.619Z,5.43
2019-04-29T03:45:33.609Z,5.07
2019-04-29T03:48:03.020Z,5.93
2019-04-29T03:50:32.355Z,5.07
2019-04-29T03:53:01.368Z,4.87
2019-04-29T03:55:39.901Z,4.87
2019-04-29T03:58:01.709Z,4.30
2019-04-29T04:00:30.705Z,4.40
2019-04-29T04:03:21.445Z,4.00
2019-04-29T04:06:15.421Z,4.90
2019-04-29T04:09:04.831Z,4.90
2019-04-29T04:11:18.743Z,4.37
2019-04-29T04:13:47.754Z,4.00
2019-04-29T04:16:30.278Z,4.77
2019-04-29T04:19:07.280Z,4.37
2019-04-29T04:21:36.294Z,4.07
2019-04-29T04:24:05.295Z,3.50
2019-04-29T04:26:34.589Z,3.60
2019-04-29T04:29:03.974Z,4.13
2019-04-29T04:31:32.993Z,3.53
2019-04-29T04:34:01.995Z,4.43
2019-04-29T04:36:31.354Z,4.40
2019-04-29T04:39:00.380Z,4.90
2019-04-29T04:41:29.551Z,5.50
2019-04-29T04:43:58.857Z,5.67
2019-04-29T04:46:27.868Z,5.87
2019-04-29T04:48:56.892Z,6.50
2019-04-29T04:51:25.904Z,5.60
2019-04-29T04:53:54.903Z,6.57
2019-04-29T04:56:23.930Z,6.77
2019-04-29T04:58:52.919Z,6.07
2019-04-29T05:01:22.256Z,7.40
2019-04-29T05:03:51.297Z,6.30
2019-04-29T05:06:20.307Z,6.20
2019-04-29T05:08:49.312Z,5.87
2019-04-29T05:11:18.720Z,6.43
2019-04-29T05:13:47.708Z,6.40
2019-04-29T05:16:16.896Z,8.30
2019-04-29T05:18:46.600Z,6.50
2019-04-29T05:21:15.964Z,7.33
2019-04-29T05:23:44.979Z,8.10
2019-04-29T05:26:14.058Z,7.73
2019-04-29T05:28:43.102Z,6.80
2019-04-29T05:31:12.284Z,8.00
2019-04-29T05:33:41.385Z,7.37
2019-04-29T05:36:21.494Z,6.37
2019-04-29T05:39:01.449Z,6.40
2019-04-29T05:41:34.916Z,6.53
2019-04-29T05:44:13.219Z,6.17
2019-04-29T05:46:46.647Z,6.13
2019-04-29T05:49:18.916Z,6.10
2019-04-29T05:52:10.458Z,6.40
2019-04-29T05:54:39.970Z,6.47
2019-04-29T05:57:09.341Z,5.90
2019-04-29T05:59:38.454Z,5.93
2019-04-29T06:02:07.461Z,6.40
2019-04-29T06:04:36.481Z,7.07
2019-04-29T06:07:05.514Z,7.80
2019-04-29T06:09:34.802Z,8.87
2019-04-29T06:12:03.824Z,8.27
2019-04-29T06:14:32.878Z,7.63
2019-04-29T06:17:02.931Z,7.57
2019-04-29T06:19:35.245Z,7.93
2019-04-29T06:22:04.049Z,8.90
2019-04-29T06:24:36.893Z,8.07
2019-04-29T06:27:04.350Z,9.97
2019-04-29T06:29:33.338Z,9.73
2019-04-29T06:32:02.361Z,9.47
2019-04-29T06:34:31.439Z,9.03
2019-04-29T06:37:00.452Z,8.00
2019-04-29T06:39:29.497Z,7.93
2019-04-29T06:41:58.535Z,8.70
2019-04-29T06:44:27.605Z,9.60
2019-04-29T06:46:57.474Z,9.43
2019-04-29T06:49:26.876Z,12.33
2019-04-29T06:51:55.941Z,10.30
2019-04-29T06:54:24.971Z,10.13
2019-04-29T06:56:54.014Z,10.33
2019-04-29T06:59:23.365Z,10.63
2019-04-29T07:01:52.719Z,11.30
2019-04-29T07:04:21.736Z,10.73
2019-04-29T07:06:57.602Z,11.90
2019-04-29T07:09:21.848Z,12.60
2019-04-29T07:11:50.910Z,12.27
2019-04-29T07:14:19.960Z,12.23
2019-04-29T07:16:48.974Z,12.83
2019-04-29T07:19:17.978Z,13.23
2019-04-29T07:21:49.911Z,13.13
2019-04-29T07:24:20.471Z,13.13
2019-04-29T07:26:49.780Z,14.07
2019-04-29T07:29:19.631Z,14.53
2019-04-29T07:31:49.424Z,13.87
2019-04-29T07:34:18.494Z,14.57
2019-04-29T07:36:47.901Z,14.97
2019-04-29T07:39:17.132Z,14.70
2019-04-29T07:41:49.542Z,15.10
2019-04-29T07:44:18.399Z,14.93
2019-04-29T07:46:58.423Z,16.33
2019-04-29T07:49:24.139Z,19.30
2019-04-29T07:51:53.188Z,21.67
2019-04-29T07:54:22.207Z,20.40
2019-04-29T07:56:51.545Z,22.77
2019-04-29T07:59:20.548Z,23.60
2019-04-29T08:01:49.609Z,22.73
2019-04-29T08:04:18.621Z,25.07
2019-04-29T08:06:47.710Z,23.10
2019-04-29T08:09:16.829Z,23.53
2019-04-29T08:11:45.869Z,20.77
2019-04-29T08:14:15.461Z,25.90
2019-04-29T08:16:44.508Z,24.43
2019-04-29T08:19:13.519Z,26.07
2019-04-29T08:21:45.490Z,24.53
2019-04-29T08:24:15.917Z,23.27
2019-04-29T08:26:47.449Z,24.53
2019-04-29T08:29:15.041Z,26.77
2019-04-29T08:31:44.085Z,26.53
2019-04-29T08:34:13.153Z,26.87
2019-04-29T08:36:42.221Z,20.03
2019-04-29T08:39:11.318Z,25.00
2019-04-29T08:41:40.350Z,24.00
2019-04-29T08:44:26.905Z,25.70
2019-04-29T08:46:59.655Z,24.27
2019-04-29T08:49:28.713Z,26.20
2019-04-29T08:51:57.779Z,25.02
2019-04-29T08:54:26.785Z,22.47
2019-04-29T08:57:02.756Z,26.95
2019-04-29T08:59:27.287Z,19.57
2019-04-29T09:01:56.361Z,22.80
2019-04-29T09:04:28.489Z,21.23
2019-04-29T09:06:56.139Z,21.75
2019-04-29T09:09:29.145Z,19.55
2019-04-29T09:11:55.997Z,19.02
2019-04-29T09:14:25.120Z,21.93
2019-04-29T09:16:54.908Z,20.92
2019-04-29T09:19:23.943Z,19.87
2019-04-29T09:21:57.064Z,19.55
2019-04-29T09:24:26.368Z,17.92
2019-04-29T09:27:05.041Z,17.15
2019-04-29T09:29:36.803Z,17.30
2019-04-29T09:32:06.619Z,14.65
2019-04-29T09:34:35.745Z,14.45
2019-04-29T09:37:04.869Z,17.65
2019-04-29T09:39:43.148Z,16.65
2019-04-29T09:42:34.883Z,16.17
2019-04-29T09:45:14.670Z,16.25
2019-04-29T09:47:44.995Z,17.52
2019-04-29T09:50:14.188Z,17.80
2019-04-29T09:52:43.295Z,17.40
2019-04-29T09:55:12.631Z,15.72
2019-04-29T09:57:41.678Z,21.12
2019-04-29T10:00:18.995Z,21.27
2019-04-29T10:03:02.604Z,18.27
2019-04-29T10:05:42.714Z,22.90
2019-04-29T10:08:11.777Z,20.90
2019-04-29T10:10:41.530Z,22.67
2019-04-29T10:13:11.047Z,18.35
2019-04-29T10:16:14.351Z,21.02
2019-04-29T10:18:52.112Z,21.27
2019-04-29T10:21:23.294Z,21.17
2019-04-29T10:23:52.613Z,21.93
2019-04-29T10:26:22.369Z,16.23
2019-04-29T10:28:56.356Z,20.97
2019-04-29T10:31:25.892Z,19.23
2019-04-29T10:33:56.512Z,18.32
2019-04-29T10:36:26.402Z,18.85
2019-04-29T10:38:57.682Z,17.40
2019-04-29T10:41:36.147Z,18.77
2019-04-29T10:44:20.672Z,16.93
2019-04-29T10:47:20.903Z,14.98
2019-04-29T10:49:59.429Z,18.25
2019-04-29T10:52:28.456Z,16.95
2019-04-29T10:54:57.481Z,17.80
2019-04-29T10:57:29.295Z,16.32
2019-04-29T11:00:04.295Z,15.43
2019-04-29T11:02:38.201Z,18.07
2019-04-29T11:05:28.143Z,14.90
2019-04-29T11:08:02.688Z,17.37
2019-04-29T11:10:31.711Z,17.77
2019-04-29T11:13:00.773Z,16.05
2019-04-29T11:15:34.070Z,14.87
2019-04-29T11:18:04.061Z,14.90
2019-04-29T11:20:34.052Z,15.35
2019-04-29T11:23:16.708Z,17.62
2019-04-29T11:25:57.313Z,16.65
2019-04-29T11:28:26.499Z,17.37
2019-04-29T11:30:55.579Z,21.95
2019-04-29T11:33:31.116Z,16.85
2019-04-29T11:36:11.233Z,14.68
2019-04-29T11:38:41.201Z,17.52
2019-04-29T11:41:12.337Z,16.10
2019-04-29T11:43:41.189Z,17.82
2019-04-29T11:46:14.532Z,17.17
2019-04-29T11:48:41.573Z,14.93
2019-04-29T11:51:23.171Z,14.47
2019-04-29T11:53:52.344Z,15.00
2019-04-29T11:56:21.394Z,14.05
2019-04-29T11:59:21.754Z,15.40
2019-04-29T12:02:02.411Z,15.18
2019-04-29T12:04:37.387Z,13.70
2019-04-29T12:07:06.434Z,18.23
2019-04-29T12:09:35.970Z,19.92
2019-04-29T12:12:07.812Z,19.50
2019-04-29T12:14:47.820Z,17.75
2019-04-29T12:17:34.913Z,15.25
2019-04-29T12:20:13.260Z,15.63
2019-04-29T12:22:48.591Z,16.35
2019-04-29T12:25:13.240Z,17.02
2019-04-29T12:27:42.301Z,15.13
2019-04-29T12:30:13.154Z,16.17
2019-04-29T12:33:10.293Z,16.42
2019-04-29T12:36:05.175Z,18.67
2019-04-29T12:38:52.273Z,15.55
2019-04-29T12:41:48.897Z,13.78
2019-04-29T12:44:34.411Z,19.77
2019-04-29T12:46:55.507Z,18.50
2019-04-29T12:49:24.597Z,16.57
2019-04-29T12:51:54.011Z,16.87
2019-04-29T12:54:23.895Z,15.05
2019-04-29T12:56:53.320Z,14.60
2019-04-29T12:59:22.390Z,14.85
2019-04-29T13:02:08.205Z,12.80
2019-04-29T13:04:56.215Z,12.73
2019-04-29T13:07:43.201Z,15.15
2019-04-29T13:10:27.445Z,15.03
2019-04-29T13:12:58.158Z,15.65
2019-04-29T13:15:48.534Z,15.70
2019-04-29T13:18:27.120Z,15.93
2019-04-29T13:21:09.555Z,14.33
2019-04-29T13:23:34.819Z,16.95
2019-04-29T13:25:58.171Z,16.57
2019-04-29T13:28:30.193Z,13.78
2019-04-29T13:30:58.286Z,16.50
2019-04-29T13:33:27.415Z,15.68
2019-04-29T13:35:56.791Z,16.65
2019-04-29T13:38:25.820Z,14.33
2019-04-29T13:41:11.822Z,14.78
2019-04-29T13:43:27.196Z,16.50
2019-04-29T13:46:06.295Z,14.38
2019-04-29T13:49:12.259Z,17.27
2019-04-29T13:51:35.848Z,16.48
2019-04-29T13:54:06.112Z,16.75
2019-04-29T13:56:53.836Z,18.27
2019-04-29T13:59:10.042Z,18.40
2019-04-29T14:02:10.546Z,17.17
2019-04-29T14:04:43.443Z,16.85
2019-04-29T14:07:13.998Z,17.80
2019-04-29T14:09:43.547Z,18.67
2019-04-29T14:12:47.296Z,20.43
2019-04-29T14:14:43.863Z,14.63
2019-04-29T14:17:25.891Z,20.40
2019-04-29T14:19:44.180Z,18.75
2019-04-29T14:22:22.086Z,18.45
2019-04-29T14:24:46.796Z,18.50
2019-04-29T14:27:24.735Z,17.07
2019-04-29T14:29:46.148Z,20.12
2019-04-29T14:32:18.301Z,19.90
2019-04-29T14:35:01.149Z,21.25
2019-04-29T14:37:30.579Z,19.80
2019-04-29T14:40:02.817Z,20.52
2019-04-29T14:42:57.935Z,17.10
2019-04-29T14:45:51.678Z,19.07
2019-04-29T14:48:42.749Z,21.23
2019-04-29T14:51:07.849Z,21.10
2019-04-29T14:53:37.243Z,21.60
2019-04-29T14:56:06.323Z,17.25
2019-04-29T14:58:35.437Z,20.80
2019-04-29T15:01:27.741Z,22.37
2019-04-29T15:04:18.000Z,22.73
2019-04-29T15:06:41.499Z,22.35
2019-04-29T15:09:16.826Z,21.82
2019-04-29T15:11:49.630Z,20.60
2019-04-29T15:14:59.114Z,23.57
2019-04-29T15:17:44.888Z,22.70
2019-04-29T15:20:31.612Z,22.75
2019-04-29T15:23:00.559Z,23.10
2019-04-29T15:25:29.638Z,24.32
2019-04-29T15:27:58.979Z,27.77
2019-04-29T15:30:31.873Z,20.85
2019-04-29T15:33:01.688Z,24.87
2019-04-29T15:35:30.752Z,24.75
2019-04-29T15:38:00.191Z,24.92
2019-04-29T15:40:29.343Z,24.67
2019-04-29T15:42:58.701Z,22.42
2019-04-29T15:45:32.326Z,23.67
2019-04-29T15:48:01.466Z,20.48
2019-04-29T15:50:32.731Z,22.37
2019-04-29T15:53:02.900Z,21.73
2019-04-29T15:55:34.782Z,22.50
2019-04-29T15:58:06.955Z,21.95
2019-04-29T16:00:40.597Z,22.77
2019-04-29T16:03:12.607Z,16.15
2019-04-29T16:06:19.813Z,28.30
2019-04-29T16:08:50.880Z,25.00
2019-04-29T16:11:37.657Z,30.75
2019-04-29T16:14:11.922Z,28.77
2019-04-29T16:16:41.021Z,26.85
2019-04-29T16:19:10.487Z,27.77
2019-04-29T16:21:41.786Z,26.23
2019-04-29T16:24:25.663Z,28.02
2019-04-29T16:26:42.046Z,29.82
2019-04-29T16:29:13.207Z,27.13
2019-04-29T16:31:43.018Z,23.12
2019-04-29T16:34:14.794Z,28.67
2019-04-29T16:36:49.816Z,28.85
2019-04-29T16:39:14.952Z,26.65
2019-04-29T16:42:01.683Z,27.93
2019-04-29T16:44:36.114Z,26.80
2019-04-29T16:47:07.530Z,24.50
2019-04-29T16:49:33.935Z,24.47
2019-04-29T16:52:02.972Z,23.47
2019-04-29T16:54:32.040Z,21.85
2019-04-29T16:57:01.482Z,22.00
2019-04-29T16:59:30.588Z,23.27
2019-04-29T17:01:59.965Z,24.50
2019-04-29T17:04:29.073Z,32.38
2019-04-29T17:09:47.139Z,21.02
2019-04-29T17:12:16.196Z,22.67
2019-04-29T17:15:02.867Z,20.80
2019-04-29T17:17:28.535Z,20.97
2019-04-29T17:19:51.170Z,19.50
2019-04-29T17:22:25.861Z,21.30
2019-04-29T17:24:51.548Z,22.07
2019-04-29T17:27:45.403Z,20.27
2019-04-29T17:30:37.708Z,20.12
2019-04-29T17:33:28.325Z,21.87
2019-04-29T17:35:17.595Z,25.48
2019-04-29T17:35:51.312Z,20.72
2019-04-29T17:38:23.429Z,22.62
2019-04-29T17:40:54.166Z,21.82
2019-04-29T17:43:43.433Z,22.25
2019-04-29T17:46:27.062Z,22.22
2019-04-29T17:49:13.428Z,22.17
2019-04-29T17:51:45.935Z,21.50
2019-04-29T17:54:18.866Z,20.32
2019-04-29T17:57:25.435Z,19.90
2019-04-29T18:00:19.552Z,20.23
2019-04-29T18:03:17.533Z,19.30
2019-04-29T18:06:24.372Z,19.13
2019-04-29T18:09:29.435Z,17.77
2019-04-29T18:12:02.396Z,17.40
2019-04-29T18:14:37.883Z,18.23
2019-04-29T18:17:04.904Z,18.50
2019-04-29T18:19:55.921Z,18.20
2019-04-29T18:22:44.657Z,18.07
2019-04-29T18:25:32.752Z,18.73
2019-04-29T18:28:01.869Z,17.40
2019-04-29T18:30:35.751Z,17.40
2019-04-29T18:33:02.253Z,19.03
2019-04-29T18:35:31.367Z,18.73
2019-04-29T18:38:00.793Z,19.50
2019-04-29T18:40:30.377Z,18.17
2019-04-29T18:43:01.689Z,17.07
2019-04-29T18:45:34.540Z,17.23
2019-04-29T18:48:01.859Z,16.47
2019-04-29T18:50:34.253Z,17.77
2019-04-29T18:53:03.025Z,15.33
2019-04-29T18:55:32.076Z,16.37
2019-04-29T18:58:01.395Z,16.60
2019-04-29T19:00:30.465Z,17.37
2019-04-29T19:03:01.040Z,15.77
2019-04-29T19:05:48.622Z,17.37
2019-04-29T19:08:23.064Z,17.07
2019-04-29T19:10:50.975Z,15.60
2019-04-29T19:13:19.344Z,16.63
2019-04-29T19:15:48.775Z,15.77
2019-04-29T19:18:21.030Z,15.37
2019-04-29T19:20:52.819Z,15.87
2019-04-29T19:23:22.477Z,16.33
2019-04-29T19:25:51.389Z,14.77
2019-04-29T19:28:29.574Z,15.23
2019-04-29T19:30:56.185Z,15.90
2019-04-29T19:33:22.494Z,14.47
2019-04-29T19:38:20.215Z,12.50
2019-04-29T19:40:51.718Z,12.93
2019-04-29T19:43:23.776Z,12.87
2019-04-29T19:45:53.126Z,15.30
2019-04-29T19:48:27.022Z,32.70
2019-04-29T19:51:13.842Z,17.83
2019-04-29T19:53:27.917Z,12.47
2019-04-29T19:56:03.772Z,12.17
2019-04-29T19:58:29.601Z,12.33
2019-04-29T20:01:10.789Z,12.03
2019-04-29T20:03:37.912Z,11.30
2019-04-29T20:06:09.723Z,11.83
2019-04-29T20:08:53.535Z,11.90
2019-04-29T20:11:14.119Z,11.60
2019-04-29T20:13:59.750Z,12.07
2019-04-29T20:16:42.773Z,11.67
2019-04-29T20:19:27.398Z,12.83
2019-04-29T20:22:00.394Z,11.40
2019-04-29T20:24:32.837Z,11.93
2019-04-29T20:27:02.089Z,12.53
2019-04-29T20:29:33.941Z,10.60
2019-04-29T20:32:02.437Z,10.80
2019-04-29T20:34:35.975Z,10.60
2019-04-29T20:37:05.994Z,11.03
2019-04-29T20:39:35.897Z,10.60
2019-04-29T20:42:10.056Z,11.33
2019-04-29T20:44:37.067Z,10.87
2019-04-29T20:47:19.624Z,10.87
2019-04-29T20:49:39.686Z,11.03
2019-04-29T20:52:43.080Z,11.40
2019-04-29T20:55:12.597Z,11.23
2019-04-29T20:57:43.453Z,10.80
2019-04-29T21:00:12.996Z,10.03
2019-04-29T21:02:45.243Z,10.40
2019-04-29T21:05:23.067Z,9.17
2019-04-29T21:07:45.258Z,9.87
2019-04-29T21:10:15.855Z,9.07
2019-04-29T21:13:08.787Z,9.60
2019-04-29T21:15:51.979Z,8.23
2019-04-29T21:18:18.236Z,9.13
2019-04-29T21:20:49.229Z,9.43
2019-04-29T21:23:18.328Z,8.87
2019-04-29T21:25:50.813Z,8.73
2019-04-29T21:28:21.927Z,8.40
2019-04-29T21:30:52.869Z,8.63
2019-04-29T21:33:22.111Z,8.37
2019-04-29T21:36:08.518Z,9.30
2019-04-29T21:38:55.806Z,9.17
2019-04-29T21:41:30.401Z,8.70
2019-04-29T21:44:00.596Z,9.23
2019-04-29T21:46:29.715Z,8.70
2019-04-29T21:48:58.792Z,9.47
2019-04-29T21:51:30.973Z,9.70
2019-04-29T21:54:00.084Z,9.70
2019-04-29T21:56:29.437Z,9.60
2019-04-29T21:58:58.549Z,10.60
2019-04-29T22:01:29.474Z,10.13
2019-04-29T22:04:02.166Z,10.20
2019-04-29T22:06:31.972Z,10.83
2019-04-29T22:09:02.535Z,11.00
2019-04-29T22:11:31.729Z,11.90
2019-04-29T22:14:00.781Z,11.53
2019-04-29T22:16:32.868Z,12.90
2019-04-29T22:19:02.570Z,12.50
2019-04-29T22:21:32.905Z,12.63
2019-04-29T22:24:01.922Z,12.60
2019-04-29T22:26:30.989Z,11.83
2019-04-29T22:29:03.400Z,13.47
2019-04-29T22:31:34.086Z,13.60
2019-04-29T22:34:01.871Z,13.67
2019-04-29T22:36:31.259Z,13.43
2019-04-29T22:39:00.865Z,13.50
2019-04-29T22:41:52.738Z,14.93
2019-04-29T22:44:25.876Z,16.73
2019-04-29T22:46:55.708Z,16.27
2019-04-29T22:49:29.219Z,15.97
2019-04-29T22:51:57.098Z,19.27
2019-04-29T22:54:26.662Z,21.40
2019-04-29T22:56:56.708Z,22.27
2019-04-29T22:59:27.515Z,31.33
2019-04-29T23:01:57.464Z,23.30
2019-04-29T23:04:26.513Z,21.70
2019-04-29T23:06:55.687Z,18.53
2019-04-29T23:09:24.732Z,17.87
2019-04-29T23:11:55.688Z,17.67
2019-04-29T23:14:25.268Z,17.17
2019-04-29T23:16:55.568Z,18.00
2019-04-29T23:19:29.436Z,17.97
2019-04-29T23:22:22.239Z,17.93
2019-04-29T23:25:00.300Z,18.07
2019-04-29T23:27:29.827Z,17.77
2019-04-29T23:29:58.873Z,17.43
2019-04-29T23:32:30.400Z,17.63
2019-04-29T23:35:06.288Z,17.57
2019-04-29T23:37:33.405Z,18.23
2019-04-29T23:40:02.769Z,18.23
2019-04-29T23:42:33.700Z,18.30
2019-04-29T23:45:05.172Z,19.67
2019-04-29T23:47:35.775Z,18.40
2019-04-29T23:50:08.670Z,18.87
2019-04-29T23:52:43.016Z,18.20
2019-04-29T23:55:12.137Z,18.67
2019-04-29T23:58:04.352Z,19.27
